sensor_id;sensor_type;location;lat;lon;timestamp;pressure;altitude;pressure_sealevel;temperature;humidity
23619;BME280;18207;32.078;34.818;2023-03-21T00:00:54;100743.56;;;22.88;44.36
23619;BME280;18207;32.078;34.818;2023-03-21T00:03:25;100731.53;;;22.87;44.38
23619;BME280;18207;32.078;34.818;2023-03-21T00:05:57;100731.09;;;22.85;44.71
23619;BME280;18207;32.078;34.818;2023-03-21T00:08:27;100742.63;;;22.84;44.40
23619;BME280;18207;32.078;34.818;2023-03-21T00:11:00;100739.81;;;22.84;44.52
23619;BME280;18207;32.078;34.818;2023-03-21T00:13:32;100732.94;;;22.81;44.45
23619;BME280;18207;32.078;34.818;2023-03-21T00:16:25;100728.88;;;22.79;44.34
23619;BME280;18207;32.078;34.818;2023-03-21T00:19:07;100727.22;;;22.78;44.62
23619;BME280;18207;32.078;34.818;2023-03-21T00:21:40;100737.59;;;22.77;44.37
23619;BME280;18207;32.078;34.818;2023-03-21T00:24:30;100740.75;;;22.76;44.64
23619;BME280;18207;32.078;34.818;2023-03-21T00:26:59;100741.94;;;22.75;44.57
23619;BME280;18207;32.078;34.818;2023-03-21T00:29:50;100737.84;;;22.72;44.50
23619;BME280;18207;32.078;34.818;2023-03-21T00:32:21;100742.19;;;22.70;44.46
23619;BME280;18207;32.078;34.818;2023-03-21T00:34:51;100739.22;;;22.66;44.72
23619;BME280;18207;32.078;34.818;2023-03-21T00:37:44;100740.28;;;22.62;44.63
23619;BME280;18207;32.078;34.818;2023-03-21T00:40:14;100750.22;;;22.59;44.43
23619;BME280;18207;32.078;34.818;2023-03-21T00:42:57;100746.59;;;22.59;44.41
23619;BME280;18207;32.078;34.818;2023-03-21T00:45:28;100737.38;;;22.58;44.84
23619;BME280;18207;32.078;34.818;2023-03-21T00:47:58;100742.53;;;22.56;44.43
23619;BME280;18207;32.078;34.818;2023-03-21T00:50:29;100745.34;;;22.56;44.67
23619;BME280;18207;32.078;34.818;2023-03-21T00:53:03;100745.66;;;22.55;44.67
23619;BME280;18207;32.078;34.818;2023-03-21T00:55:34;100734.81;;;22.53;44.36
23619;BME280;18207;32.078;34.818;2023-03-21T00:58:05;100737.94;;;22.52;44.49
23619;BME280;18207;32.078;34.818;2023-03-21T01:00:37;100741.94;;;22.51;44.84
23619;BME280;18207;32.078;34.818;2023-03-21T01:03:11;100734.69;;;22.50;44.52
23619;BME280;18207;32.078;34.818;2023-03-21T01:05:52;100732.22;;;22.48;44.73
23619;BME280;18207;32.078;34.818;2023-03-21T01:08:39;100718.59;;;22.47;44.50
23619;BME280;18207;32.078;34.818;2023-03-21T01:11:22;100717.31;;;22.44;44.38
23619;BME280;18207;32.078;34.818;2023-03-21T01:13:54;100721.28;;;22.43;44.75
23619;BME280;18207;32.078;34.818;2023-03-21T01:16:44;100727.56;;;22.41;44.94
23619;BME280;18207;32.078;34.818;2023-03-21T01:19:18;100732.34;;;22.40;44.34
23619;BME280;18207;32.078;34.818;2023-03-21T01:22:09;100738.28;;;22.39;44.82
23619;BME280;18207;32.078;34.818;2023-03-21T01:24:41;100731.88;;;22.38;44.63
23619;BME280;18207;32.078;34.818;2023-03-21T01:27:21;100738.63;;;22.37;44.86
23619;BME280;18207;32.078;34.818;2023-03-21T01:29:52;100731.03;;;22.38;44.63
23619;BME280;18207;32.078;34.818;2023-03-21T01:32:22;100729.44;;;22.37;45.01
23619;BME280;18207;32.078;34.818;2023-03-21T01:34:53;100724.63;;;22.37;44.79
23619;BME280;18207;32.078;34.818;2023-03-21T01:37:23;100729.75;;;22.35;44.46
23619;BME280;18207;32.078;34.818;2023-03-21T01:39:55;100734.56;;;22.35;44.84
23619;BME280;18207;32.078;34.818;2023-03-21T01:42:26;100738.84;;;22.32;44.82
23619;BME280;18207;32.078;34.818;2023-03-21T01:44:58;100736.72;;;22.29;45.08
23619;BME280;18207;32.078;34.818;2023-03-21T01:47:29;100738.25;;;22.27;44.69
23619;BME280;18207;32.078;34.818;2023-03-21T01:50:03;100727.38;;;22.25;44.94
23619;BME280;18207;32.078;34.818;2023-03-21T01:52:36;100733.34;;;22.24;44.88
23619;BME280;18207;32.078;34.818;2023-03-21T01:55:13;100735.31;;;22.23;44.80
23619;BME280;18207;32.078;34.818;2023-03-21T01:57:48;100734.03;;;22.21;44.93
23619;BME280;18207;32.078;34.818;2023-03-21T02:00:33;100722.72;;;22.17;44.90
23619;BME280;18207;32.078;34.818;2023-03-21T02:03:07;100725.88;;;22.16;44.62
23619;BME280;18207;32.078;34.818;2023-03-21T02:06:00;100725.38;;;22.14;44.54
23619;BME280;18207;32.078;34.818;2023-03-21T02:08:32;100728.53;;;22.12;44.92
23619;BME280;18207;32.078;34.818;2023-03-21T02:11:08;100728.06;;;22.10;45.09
23619;BME280;18207;32.078;34.818;2023-03-21T02:13:40;100722.00;;;22.08;44.77
23619;BME280;18207;32.078;34.818;2023-03-21T02:16:18;100723.97;;;22.08;44.83
23619;BME280;18207;32.078;34.818;2023-03-21T02:18:59;100724.31;;;22.06;45.06
23619;BME280;18207;32.078;34.818;2023-03-21T02:22:29;100723.72;;;22.01;44.68
23619;BME280;18207;32.078;34.818;2023-03-21T02:25:55;100729.53;;;21.96;44.76
23619;BME280;18207;32.078;34.818;2023-03-21T02:28:38;100723.00;;;21.92;44.63
23619;BME280;18207;32.078;34.818;2023-03-21T02:31:23;100724.50;;;21.89;44.62
23619;BME280;18207;32.078;34.818;2023-03-21T02:34:23;100716.47;;;21.88;44.63
23619;BME280;18207;32.078;34.818;2023-03-21T02:37:18;100720.75;;;21.85;45.14
23619;BME280;18207;32.078;34.818;2023-03-21T02:40:08;100729.16;;;21.85;45.02
23619;BME280;18207;32.078;34.818;2023-03-21T02:42:54;100734.75;;;21.85;45.02
23619;BME280;18207;32.078;34.818;2023-03-21T02:45:37;100733.09;;;21.84;44.71
23619;BME280;18207;32.078;34.818;2023-03-21T02:48:12;100753.53;;;21.85;44.54
23619;BME280;18207;32.078;34.818;2023-03-21T02:50:59;100751.88;;;21.84;45.08
23619;BME280;18207;32.078;34.818;2023-03-21T02:53:37;100757.81;;;21.82;44.59
23619;BME280;18207;32.078;34.818;2023-03-21T02:56:10;100760.94;;;21.81;44.77
23619;BME280;18207;32.078;34.818;2023-03-21T02:58:42;100762.09;;;21.80;44.96
23619;BME280;18207;32.078;34.818;2023-03-21T03:01:13;100763.25;;;21.79;44.76
23619;BME280;18207;32.078;34.818;2023-03-21T03:03:43;100772.00;;;21.77;45.06
23619;BME280;18207;32.078;34.818;2023-03-21T03:06:19;100774.31;;;21.75;44.95
23619;BME280;18207;32.078;34.818;2023-03-21T03:09:18;100779.44;;;21.73;44.83
23619;BME280;18207;32.078;34.818;2023-03-21T03:12:07;100782.09;;;21.70;44.84
23619;BME280;18207;32.078;34.818;2023-03-21T03:14:51;100775.59;;;21.66;45.14
23619;BME280;18207;32.078;34.818;2023-03-21T03:17:45;100777.09;;;21.63;44.92
23619;BME280;18207;32.078;34.818;2023-03-21T03:20:38;100761.78;;;21.61;44.92
23619;BME280;18207;32.078;34.818;2023-03-21T03:23:24;100772.50;;;21.59;44.60
23619;BME280;18207;32.078;34.818;2023-03-21T03:26:05;100772.03;;;21.57;44.67
23619;BME280;18207;32.078;34.818;2023-03-21T03:28:44;100774.31;;;21.55;44.76
23619;BME280;18207;32.078;34.818;2023-03-21T03:31:23;100774.19;;;21.52;45.14
23619;BME280;18207;32.078;34.818;2023-03-21T03:33:59;100776.50;;;21.50;44.68
23619;BME280;18207;32.078;34.818;2023-03-21T03:36:38;100784.06;;;21.49;44.83
23619;BME280;18207;32.078;34.818;2023-03-21T03:39:12;100788.03;;;21.48;44.78
23619;BME280;18207;32.078;34.818;2023-03-21T03:41:50;100790.00;;;21.48;44.70
23619;BME280;18207;32.078;34.818;2023-03-21T03:44:42;100801.06;;;21.44;44.90
23619;BME280;18207;32.078;34.818;2023-03-21T03:47:20;100815.38;;;21.43;44.80
23619;BME280;18207;32.078;34.818;2023-03-21T03:50:08;100832.47;;;21.41;45.14
23619;BME280;18207;32.078;34.818;2023-03-21T03:52:48;100828.03;;;21.40;44.97
23619;BME280;18207;32.078;34.818;2023-03-21T03:55:26;100833.19;;;21.38;44.82
23619;BME280;18207;32.078;34.818;2023-03-21T03:58:03;100841.06;;;21.36;44.94
23619;BME280;18207;32.078;34.818;2023-03-21T04:00:49;100843.38;;;21.34;44.95
23619;BME280;18207;32.078;34.818;2023-03-21T04:03:19;100839.28;;;21.32;45.32
23619;BME280;18207;32.078;34.818;2023-03-21T04:05:50;100844.06;;;21.31;45.29
23619;BME280;18207;32.078;34.818;2023-03-21T04:08:21;100838.47;;;21.31;45.36
23619;BME280;18207;32.078;34.818;2023-03-21T04:10:52;100842.91;;;21.32;45.41
23619;BME280;18207;32.078;34.818;2023-03-21T04:13:24;100831.41;;;21.34;45.27
23619;BME280;18207;32.078;34.818;2023-03-21T04:15:55;100837.44;;;21.36;45.51
23619;BME280;18207;32.078;34.818;2023-03-21T04:18:25;100827.59;;;21.38;45.68
23619;BME280;18207;32.078;34.818;2023-03-21T04:20:56;100824.09;;;21.41;45.22
23619;BME280;18207;32.078;34.818;2023-03-21T04:23:26;100807.81;;;21.43;45.63
23619;BME280;18207;32.078;34.818;2023-03-21T04:25:58;100806.28;;;21.46;45.28
23619;BME280;18207;32.078;34.818;2023-03-21T04:28:30;100797.59;;;21.47;45.42
23619;BME280;18207;32.078;34.818;2023-03-21T04:31:00;100792.78;;;21.48;45.57
23619;BME280;18207;32.078;34.818;2023-03-21T04:33:46;100786.84;;;21.49;45.57
23619;BME280;18207;32.078;34.818;2023-03-21T04:36:17;100788.50;;;21.50;45.54
23619;BME280;18207;32.078;34.818;2023-03-21T04:38:56;100789.34;;;21.51;45.54
23619;BME280;18207;32.078;34.818;2023-03-21T04:41:28;100800.50;;;21.51;45.36
23619;BME280;18207;32.078;34.818;2023-03-21T04:44:00;100798.19;;;21.52;45.79
23619;BME280;18207;32.078;34.818;2023-03-21T04:46:31;100793.06;;;21.54;45.75
23619;BME280;18207;32.078;34.818;2023-03-21T04:49:02;100798.84;;;21.58;45.84
23619;BME280;18207;32.078;34.818;2023-03-21T04:51:34;100801.78;;;21.61;45.38
23619;BME280;18207;32.078;34.818;2023-03-21T04:54:04;100795.84;;;21.63;45.67
23619;BME280;18207;32.078;34.818;2023-03-21T04:56:33;100794.31;;;21.65;45.62
23619;BME280;18207;32.078;34.818;2023-03-21T04:59:09;100793.28;;;21.70;45.87
23619;BME280;18207;32.078;34.818;2023-03-21T05:01:40;100797.53;;;21.76;45.98
23619;BME280;18207;32.078;34.818;2023-03-21T05:04:12;100797.31;;;21.81;46.08
23619;BME280;18207;32.078;34.818;2023-03-21T05:06:44;100794.31;;;21.86;45.68
23619;BME280;18207;32.078;34.818;2023-03-21T05:09:14;100794.94;;;21.91;46.11
23619;BME280;18207;32.078;34.818;2023-03-21T05:11:45;100793.53;;;21.97;46.11
23619;BME280;18207;32.078;34.818;2023-03-21T05:14:20;100799.41;;;22.04;46.29
23619;BME280;18207;32.078;34.818;2023-03-21T05:16:51;100806.44;;;22.10;46.32
23619;BME280;18207;32.078;34.818;2023-03-21T05:19:27;100805.03;;;22.16;46.13
23619;BME280;18207;32.078;34.818;2023-03-21T05:22:04;100809.59;;;22.21;46.06
23619;BME280;18207;32.078;34.818;2023-03-21T05:24:37;100807.06;;;22.28;45.99
23619;BME280;18207;32.078;34.818;2023-03-21T05:27:09;100810.16;;;22.35;45.98
23619;BME280;18207;32.078;34.818;2023-03-21T05:29:43;100801.53;;;22.40;45.86
23619;BME280;18207;32.078;34.818;2023-03-21T05:32:13;100812.16;;;22.46;46.04
23619;BME280;18207;32.078;34.818;2023-03-21T05:34:43;100811.97;;;22.51;46.16
23619;BME280;18207;32.078;34.818;2023-03-21T05:37:13;100819.66;;;22.54;45.93
23619;BME280;18207;32.078;34.818;2023-03-21T05:39:43;100815.69;;;22.55;46.30
23619;BME280;18207;32.078;34.818;2023-03-21T05:42:13;100824.56;;;22.57;45.97
23619;BME280;18207;32.078;34.818;2023-03-21T05:44:47;100827.34;;;22.57;45.64
23619;BME280;18207;32.078;34.818;2023-03-21T05:47:18;100827.00;;;22.58;45.59
23619;BME280;18207;32.078;34.818;2023-03-21T05:49:48;100838.56;;;22.57;45.67
23619;BME280;18207;32.078;34.818;2023-03-21T05:52:19;100832.97;;;22.57;45.48
23619;BME280;18207;32.078;34.818;2023-03-21T05:54:50;100833.75;;;22.57;45.83
23619;BME280;18207;32.078;34.818;2023-03-21T05:57:20;100835.41;;;22.58;45.44
23619;BME280;18207;32.078;34.818;2023-03-21T05:59:53;100839.84;;;22.59;45.42
23619;BME280;18207;32.078;34.818;2023-03-21T06:02:27;100836.25;;;22.59;45.35
23619;BME280;18207;32.078;34.818;2023-03-21T06:04:57;100844.66;;;22.59;45.45
23619;BME280;18207;32.078;34.818;2023-03-21T06:07:28;100848.25;;;22.59;45.48
23619;BME280;18207;32.078;34.818;2023-03-21T06:09:59;100857.94;;;22.62;45.34
23619;BME280;18207;32.078;34.818;2023-03-21T06:12:29;100849.69;;;22.65;45.83
23619;BME280;18207;32.078;34.818;2023-03-21T06:15:02;100848.28;;;22.71;45.78
23619;BME280;18207;32.078;34.818;2023-03-21T06:17:33;100855.28;;;22.77;46.12
23619;BME280;18207;32.078;34.818;2023-03-21T06:20:05;100852.75;;;22.84;45.99
23619;BME280;18207;32.078;34.818;2023-03-21T06:22:36;100839.31;;;22.90;45.78
23619;BME280;18207;32.078;34.818;2023-03-21T06:25:07;100844.81;;;22.98;46.19
23619;BME280;18207;32.078;34.818;2023-03-21T06:27:38;100854.78;;;23.08;45.96
23619;BME280;18207;32.078;34.818;2023-03-21T06:30:13;100857.13;;;23.18;46.58
23619;BME280;18207;32.078;34.818;2023-03-21T06:32:45;100845.78;;;23.26;46.36
23619;BME280;18207;32.078;34.818;2023-03-21T06:35:15;100848.09;;;23.36;46.24
23619;BME280;18207;32.078;34.818;2023-03-21T06:37:44;100839.09;;;23.42;46.20
23619;BME280;18207;32.078;34.818;2023-03-21T06:40:16;100845.75;;;23.50;46.31
23619;BME280;18207;32.078;34.818;2023-03-21T06:42:46;100838.38;;;23.57;46.26
23619;BME280;18207;32.078;34.818;2023-03-21T06:45:18;100833.78;;;23.65;46.55
23619;BME280;18207;32.078;34.818;2023-03-21T06:47:49;100841.63;;;23.71;46.55
23619;BME280;18207;32.078;34.818;2023-03-21T06:50:19;100837.06;;;23.79;46.49
23619;BME280;18207;32.078;34.818;2023-03-21T06:52:49;100835.63;;;23.85;46.26
23619;BME280;18207;32.078;34.818;2023-03-21T06:55:20;100841.13;;;23.93;46.16
23619;BME280;18207;32.078;34.818;2023-03-21T06:57:54;100833.75;;;24.01;46.53
23619;BME280;18207;32.078;34.818;2023-03-21T07:00:28;100830.75;;;24.09;46.26
23619;BME280;18207;32.078;34.818;2023-03-21T07:02:58;100843.38;;;24.15;46.15
23619;BME280;18207;32.078;34.818;2023-03-21T07:05:29;100835.53;;;24.20;45.88
23619;BME280;18207;32.078;34.818;2023-03-21T07:07:59;100834.09;;;24.26;46.01
23619;BME280;18207;32.078;34.818;2023-03-21T07:10:29;100834.72;;;24.35;46.21
23619;BME280;18207;32.078;34.818;2023-03-21T07:13:00;100835.75;;;24.43;46.10
23619;BME280;18207;32.078;34.818;2023-03-21T07:15:33;100832.81;;;24.51;46.13
23619;BME280;18207;32.078;34.818;2023-03-21T07:18:06;100816.94;;;24.59;45.97
23619;BME280;18207;32.078;34.818;2023-03-21T07:20:37;100823.97;;;24.65;46.03
23619;BME280;18207;32.078;34.818;2023-03-21T07:23:07;100821.22;;;24.68;45.89
23619;BME280;18207;32.078;34.818;2023-03-21T07:25:37;100825.78;;;24.73;45.69
23619;BME280;18207;32.078;34.818;2023-03-21T07:28:08;100830.69;;;24.76;45.71
23619;BME280;18207;32.078;34.818;2023-03-21T07:30:42;100833.91;;;24.78;45.72
23619;BME280;18207;32.078;34.818;2023-03-21T07:33:13;100833.56;;;24.79;45.62
23619;BME280;18207;32.078;34.818;2023-03-21T07:35:43;100850.53;;;24.83;45.51
23619;BME280;18207;32.078;34.818;2023-03-21T07:38:14;100846.25;;;24.89;45.58
23619;BME280;18207;32.078;34.818;2023-03-21T07:40:46;100852.44;;;24.94;45.50
23619;BME280;18207;32.078;34.818;2023-03-21T07:43:18;100848.19;;;25.00;45.57
23619;BME280;18207;32.078;34.818;2023-03-21T07:45:55;100842.28;;;25.05;45.46
23619;BME280;18207;32.078;34.818;2023-03-21T07:48:26;100855.25;;;25.09;45.44
23619;BME280;18207;32.078;34.818;2023-03-21T07:50:57;100850.56;;;25.13;45.31
23619;BME280;18207;32.078;34.818;2023-03-21T07:53:27;100851.47;;;25.17;45.08
23619;BME280;18207;32.078;34.818;2023-03-21T07:55:57;100848.72;;;25.21;45.22
23619;BME280;18207;32.078;34.818;2023-03-21T07:58:27;100852.09;;;25.26;45.42
23619;BME280;18207;32.078;34.818;2023-03-21T08:01:00;100850.19;;;25.30;45.25
23619;BME280;18207;32.078;34.818;2023-03-21T08:03:31;100858.34;;;25.35;45.17
23619;BME280;18207;32.078;34.818;2023-03-21T08:06:01;100860.06;;;25.40;45.00
23619;BME280;18207;32.078;34.818;2023-03-21T08:08:32;100843.28;;;25.43;44.99
23619;BME280;18207;32.078;34.818;2023-03-21T08:11:04;100855.06;;;25.49;44.90
23619;BME280;18207;32.078;34.818;2023-03-21T08:13:34;100849.13;;;25.54;45.06
23619;BME280;18207;32.078;34.818;2023-03-21T08:16:08;100847.69;;;25.60;45.11
23619;BME280;18207;32.078;34.818;2023-03-21T08:18:39;100845.75;;;25.64;44.97
23619;BME280;18207;32.078;34.818;2023-03-21T08:21:09;100843.47;;;25.69;45.33
23619;BME280;18207;32.078;34.818;2023-03-21T08:23:40;100858.06;;;25.75;44.90
23619;BME280;18207;32.078;34.818;2023-03-21T08:26:14;100864.66;;;25.79;44.83
23619;BME280;18207;32.078;34.818;2023-03-21T08:28:46;100859.09;;;25.82;44.68
23619;BME280;18207;32.078;34.818;2023-03-21T08:31:18;100851.09;;;25.84;44.69
23619;BME280;18207;32.078;34.818;2023-03-21T08:33:50;100863.63;;;25.87;44.43
23619;BME280;18207;32.078;34.818;2023-03-21T08:36:22;100855.63;;;25.89;44.55
23619;BME280;18207;32.078;34.818;2023-03-21T08:38:53;100865.66;;;25.90;44.64
23619;BME280;18207;32.078;34.818;2023-03-21T08:41:32;100864.94;;;25.93;44.22
23619;BME280;18207;32.078;34.818;2023-03-21T08:44:03;100863.75;;;25.94;44.67
23619;BME280;18207;32.078;34.818;2023-03-21T08:46:37;100863.38;;;25.95;44.25
23619;BME280;18207;32.078;34.818;2023-03-21T08:49:07;100879.09;;;25.96;44.17
23619;BME280;18207;32.078;34.818;2023-03-21T08:51:37;100873.47;;;25.96;44.33
23619;BME280;18207;32.078;34.818;2023-03-21T08:54:18;100879.56;;;25.98;44.04
23619;BME280;18207;32.078;34.818;2023-03-21T08:56:49;100877.91;;;25.97;44.18
23619;BME280;18207;32.078;34.818;2023-03-21T08:59:20;100881.56;;;25.98;44.12
23619;BME280;18207;32.078;34.818;2023-03-21T09:01:53;100877.56;;;25.98;44.01
23619;BME280;18207;32.078;34.818;2023-03-21T09:04:23;100873.53;;;25.99;44.11
23619;BME280;18207;32.078;34.818;2023-03-21T09:06:54;100873.66;;;26.03;44.23
23619;BME280;18207;32.078;34.818;2023-03-21T09:09:25;100877.25;;;26.03;44.12
23619;BME280;18207;32.078;34.818;2023-03-21T09:11:55;100873.72;;;26.06;44.09
23619;BME280;18207;32.078;34.818;2023-03-21T09:14:25;100871.34;;;26.08;43.89
23619;BME280;18207;32.078;34.818;2023-03-21T09:16:58;100864.50;;;26.09;43.94
23619;BME280;18207;32.078;34.818;2023-03-21T09:19:28;100855.31;;;26.12;44.02
23619;BME280;18207;32.078;34.818;2023-03-21T09:21:58;100863.50;;;26.17;44.05
23619;BME280;18207;32.078;34.818;2023-03-21T09:24:28;100863.19;;;26.22;44.01
23619;BME280;18207;32.078;34.818;2023-03-21T09:26:59;100862.06;;;26.27;44.15
23619;BME280;18207;32.078;34.818;2023-03-21T09:29:29;100853.34;;;26.32;44.17
23619;BME280;18207;32.078;34.818;2023-03-21T09:32:01;100847.03;;;26.38;44.07
23619;BME280;18207;32.078;34.818;2023-03-21T09:34:34;100852.38;;;26.43;44.17
23619;BME280;18207;32.078;34.818;2023-03-21T09:37:09;100850.06;;;26.49;43.99
23619;BME280;18207;32.078;34.818;2023-03-21T09:39:40;100845.75;;;26.55;43.77
23619;BME280;18207;32.078;34.818;2023-03-21T09:42:29;100847.91;;;26.61;43.90
23619;BME280;18207;32.078;34.818;2023-03-21T09:45:10;100845.13;;;26.65;43.88
23619;BME280;18207;32.078;34.818;2023-03-21T09:47:49;100851.66;;;26.69;43.40
23619;BME280;18207;32.078;34.818;2023-03-21T09:50:25;100843.66;;;26.71;43.49
23619;BME280;18207;32.078;34.818;2023-03-21T09:53:01;100854.53;;;26.72;43.56
23619;BME280;18207;32.078;34.818;2023-03-21T09:55:35;100844.09;;;26.73;43.39
23619;BME280;18207;32.078;34.818;2023-03-21T09:58:20;100855.44;;;26.76;43.60
23619;BME280;18207;32.078;34.818;2023-03-21T10:01:02;100851.44;;;26.77;43.43
23619;BME280;18207;32.078;34.818;2023-03-21T10:03:38;100848.63;;;26.77;43.36
23619;BME280;18207;32.078;34.818;2023-03-21T10:06:13;100844.22;;;26.80;43.37
23619;BME280;18207;32.078;34.818;2023-03-21T10:08:47;100846.66;;;26.81;43.31
23619;BME280;18207;32.078;34.818;2023-03-21T10:11:24;100841.91;;;26.85;43.23
23619;BME280;18207;32.078;34.818;2023-03-21T10:14:02;100842.34;;;26.87;43.15
23619;BME280;18207;32.078;34.818;2023-03-21T10:16:38;100843.59;;;26.89;43.51
23619;BME280;18207;32.078;34.818;2023-03-21T10:19:15;100844.84;;;26.92;43.14
23619;BME280;18207;32.078;34.818;2023-03-21T10:21:50;100837.19;;;26.92;43.24
23619;BME280;18207;32.078;34.818;2023-03-21T10:24:32;100833.16;;;26.93;43.26
23619;BME280;18207;32.078;34.818;2023-03-21T10:27:04;100844.91;;;26.95;43.12
23619;BME280;18207;32.078;34.818;2023-03-21T10:29:41;100839.69;;;26.97;42.96
23619;BME280;18207;32.078;34.818;2023-03-21T10:32:16;100828.03;;;26.99;42.68
23619;BME280;18207;32.078;34.818;2023-03-21T10:34:52;100836.13;;;27.00;42.92
23619;BME280;18207;32.078;34.818;2023-03-21T10:37:29;100835.78;;;27.02;42.71
23619;BME280;18207;32.078;34.818;2023-03-21T10:40:00;100843.84;;;27.03;42.93
23619;BME280;18207;32.078;34.818;2023-03-21T10:42:33;100841.88;;;27.04;42.89
23619;BME280;18207;32.078;34.818;2023-03-21T10:45:16;100833.84;;;27.06;42.92
23619;BME280;18207;32.078;34.818;2023-03-21T10:47:49;100830.63;;;27.07;42.89
23619;BME280;18207;32.078;34.818;2023-03-21T10:50:28;100832.72;;;27.10;42.67
23619;BME280;18207;32.078;34.818;2023-03-21T10:52:59;100833.91;;;27.09;42.71
23619;BME280;18207;32.078;34.818;2023-03-21T10:55:33;100837.16;;;27.11;42.54
23619;BME280;18207;32.078;34.818;2023-03-21T10:58:07;100837.59;;;27.13;42.74
23619;BME280;18207;32.078;34.818;2023-03-21T11:00:41;100842.88;;;27.15;42.73
23619;BME280;18207;32.078;34.818;2023-03-21T11:03:22;100833.28;;;27.19;42.73
23619;BME280;18207;32.078;34.818;2023-03-21T11:06:03;100836.53;;;27.21;42.62
23619;BME280;18207;32.078;34.818;2023-03-21T11:08:40;100830.09;;;27.24;42.60
23619;BME280;18207;32.078;34.818;2023-03-21T11:11:20;100828.13;;;27.25;42.69
23619;BME280;18207;32.078;34.818;2023-03-21T11:13:59;100827.72;;;27.26;42.29
23619;BME280;18207;32.078;34.818;2023-03-21T11:16:38;100828.53;;;27.27;42.40
23619;BME280;18207;32.078;34.818;2023-03-21T11:19:16;100835.00;;;27.27;42.48
23619;BME280;18207;32.078;34.818;2023-03-21T11:21:49;100832.97;;;27.28;42.38
23619;BME280;18207;32.078;34.818;2023-03-21T11:24:20;100837.44;;;27.29;42.22
23619;BME280;18207;32.078;34.818;2023-03-21T11:26:50;100838.28;;;27.29;42.49
23619;BME280;18207;32.078;34.818;2023-03-21T11:29:29;100838.63;;;27.28;42.16
23619;BME280;18207;32.078;34.818;2023-03-21T11:32:09;100828.53;;;27.27;42.22
23619;BME280;18207;32.078;34.818;2023-03-21T11:34:48;100824.47;;;27.24;42.34
23619;BME280;18207;32.078;34.818;2023-03-21T11:37:36;100829.31;;;27.24;42.21
23619;BME280;18207;32.078;34.818;2023-03-21T11:40:21;100832.50;;;27.22;42.12
23619;BME280;18207;32.078;34.818;2023-03-21T11:42:54;100823.97;;;27.19;42.08
23619;BME280;18207;32.078;34.818;2023-03-21T11:45:27;100833.63;;;27.18;42.05
23619;BME280;18207;32.078;34.818;2023-03-21T11:48:00;100831.63;;;27.18;41.99
23619;BME280;18207;32.078;34.818;2023-03-21T11:50:34;100834.06;;;27.20;42.30
23619;BME280;18207;32.078;34.818;2023-03-21T11:53:22;100830.06;;;27.21;42.23
23619;BME280;18207;32.078;34.818;2023-03-21T11:56:21;100828.06;;;27.21;42.25
23619;BME280;18207;32.078;34.818;2023-03-21T12:02:38;100820.69;;;27.17;41.86
23619;BME280;18207;32.078;34.818;2023-03-21T12:05:28;100827.94;;;27.14;41.91
23619;BME280;18207;32.078;34.818;2023-03-21T12:08:18;100827.47;;;27.12;41.97
23619;BME280;18207;32.078;34.818;2023-03-21T12:11:03;100817.78;;;27.10;41.74
23619;BME280;18207;32.078;34.818;2023-03-21T12:13:57;100818.53;;;27.07;41.69
23619;BME280;18207;32.078;34.818;2023-03-21T12:16:49;100827.38;;;27.05;41.86
23619;BME280;18207;32.078;34.818;2023-03-21T12:19:50;100818.91;;;27.05;41.64
23619;BME280;18207;32.078;34.818;2023-03-21T12:22:33;100817.66;;;27.03;41.73
23619;BME280;18207;32.078;34.818;2023-03-21T12:25:14;100816.03;;;27.02;41.60
23619;BME280;18207;32.078;34.818;2023-03-21T12:28:01;100812.75;;;27.00;41.82
23619;BME280;18207;32.078;34.818;2023-03-21T12:30:47;100812.75;;;27.00;41.85
23619;BME280;18207;32.078;34.818;2023-03-21T12:33:35;100807.88;;;26.97;41.69
23619;BME280;18207;32.078;34.818;2023-03-21T12:36:39;100805.41;;;26.95;41.76
23619;BME280;18207;32.078;34.818;2023-03-21T12:39:23;100809.06;;;26.96;41.75
23619;BME280;18207;32.078;34.818;2023-03-21T12:45:19;100807.38;;;26.91;41.64
23619;BME280;18207;32.078;34.818;2023-03-21T12:47:58;100803.72;;;26.91;41.61
23619;BME280;18207;32.078;34.818;2023-03-21T12:50:33;100805.31;;;26.88;41.49
23619;BME280;18207;32.078;34.818;2023-03-21T12:53:26;100800.03;;;26.87;41.38
23619;BME280;18207;32.078;34.818;2023-03-21T12:56:05;100797.97;;;26.84;41.44
23619;BME280;18207;32.078;34.818;2023-03-21T12:58:47;100803.16;;;26.82;41.44
23619;BME280;18207;32.078;34.818;2023-03-21T13:01:23;100803.91;;;26.79;41.39
23619;BME280;18207;32.078;34.818;2023-03-21T13:04:27;100806.66;;;26.76;41.23
23619;BME280;18207;32.078;34.818;2023-03-21T13:07:04;100795.72;;;26.71;41.29
23619;BME280;18207;32.078;34.818;2023-03-21T13:09:37;100802.47;;;26.66;41.11
23619;BME280;18207;32.078;34.818;2023-03-21T13:12:27;100814.88;;;26.62;41.17
23619;BME280;18207;32.078;34.818;2023-03-21T13:18:26;100811.91;;;26.55;41.20
23619;BME280;18207;32.078;34.818;2023-03-21T13:21:04;100819.97;;;26.53;41.39
23619;BME280;18207;32.078;34.818;2023-03-21T13:23:40;100823.53;;;26.50;41.15
23619;BME280;18207;32.078;34.818;2023-03-21T13:26:11;100818.16;;;26.45;41.19
23619;BME280;18207;32.078;34.818;2023-03-21T13:28:42;100825.75;;;26.41;41.11
23619;BME280;18207;32.078;34.818;2023-03-21T13:31:18;100816.81;;;26.39;41.17
23619;BME280;18207;32.078;34.818;2023-03-21T13:33:54;100834.91;;;26.38;41.46
23619;BME280;18207;32.078;34.818;2023-03-21T13:36:30;100825.22;;;26.35;41.37